Oceana Nas /Apollo Soucek Field/ Station
KNTU : now visible

Airfield :











YOU CAN JOIN US ON...

 
LOGIN :

Register | Disclaimer

   EN    FR    IT 

 









Legend :    VFR   Marginal VFR   IFR   Intensive IFR   Very Intensive IFR
Visi :
Ceiling :
>= 8 km
>= 3000ft
5 to 8 km
1000 to 3000 ft
1500m to 5 km
500 to 1000 ft
800 to 1500m
200 to 500 ft
< 800m
< 200 ft
Symbols :   Thunderstorms  Fog  Heavy snow  Heavy precipitations  Wind > 20 kt






- Airport Elevation : 23 ft


KNTU - Oceana Nas /Apollo Soucek Field/ Station

CURRENT METAR :
  • 040656Z 20007KT 10SM OVC140 08/M02 A3023 RMK AO2 SLP238 T00781017

EXPIRED METARs :
  • 040556Z 21006KT 10SM OVC130 07/M01 A3024 RMK AO2 SLP244 T00671011 10100 20022 58004
  • 040456Z 00000KT 10SM BKN130 OVC220 06/M02 A3025 RMK AO2 SLP245 T00611017 401501011

TAF TAF KNTU
Valid from the 04 at 07:00 until the 05 at 07:00 UTC


0407/0507 21008KT 9999 OVC130 QNH3020INS
BECMG 0412/0414 21010G18KT 9999 BKN120 OVC260 QNH3009INS
TEMPO 0415/0420 8000 SHRA BKN040 OVC120
BECMG 0500/0502 17008KT 9999 VCSH BKN030 BKN100 OVC260 QNH3000INS
BECMG 0503/0505 17008KT 8000 SHRA BKN030 OVC100 QNH2965INS T04/0407Z T18/0419Z FN00231
KZDC FIR / North America



MET'MAP, your aeronautical weather chart ! - Copyright ORBIFLY December 2007 - Disclaimer

ORBIFLY MET'MAP TEAM :

Programming & Development : Alexandra Zaïnal
Concept & original design : Baudouin d'Aumeries
Assistance for programming : Marc-Olivier Méhu
Technical & hardware support : Manuel Goepfert

Contact : metmap@orbifly.com




SOURCES & CREDITS :

   NOAA       Earth
Advisory